METAR Data

Data at: 1034 UTC 21 Apr 2021

METAR for:K1P1 (Plymouth Muni, NH, US)
Text:K1P1 211015Z AUTO 00000KT 5SM BR BKN050 OVC110 03/03 A2983 RMK AO2 T00300025
Temperature: 3.0°C ( 37°F)
Dewpoint: 2.5°C ( 36°F) [RH = 97%]
Pressure (altimeter):29.83 inches Hg (1010.2 mb)
Winds:calm
Visibility: 5 sm ( 8 km)
Ceiling:5000 feet AGL
Clouds: broken clouds at 5000 feet AGL, overcast cloud deck at 11000 feet AGL
Weather:BR (mist)
QC Flag:automated observation with no human augmentation